ADDS METAR Data INFO
IDs: Format: Raw Decoded Include TAF

Data at: 2111 UTC 20 Nov 2017

KHHF 202055Z AUTO 20009KT 10SM CLR 18/M07 A2982 RMK AO2 T01831068
KHHF 202035Z AUTO 21008KT 10SM CLR 18/M06 A2982 RMK AO2 T01811064
KHHF 202015Z AUTO 19010KT 10SM CLR 18/M06 A2983 RMK AO2 T01801062
KHHF 201955Z AUTO 21008KT 10SM CLR 18/M07 A2983 RMK AO2 T01761066
KHHF 201935Z AUTO 22009G15KT 10SM CLR 18/M08 A2984 RMK AO2 T01791077
KHHF 201915Z AUTO 22011KT 10SM CLR 18/M07 A2983 RMK AO2 T01761073
KHHF 201855Z AUTO 22012KT 10SM CLR 18/M07 A2984 RMK AO2 T01771071
KHHF 201835Z AUTO 24010KT 10SM CLR 18/M07 A2987 RMK AO2 T01761070
KHHF 201815Z AUTO 22010KT 10SM CLR 17/M07 A2987 RMK AO2 T01661067
KHHF 201755Z AUTO 21010KT 10SM CLR 16/M06 A2987 RMK AO2 T01551063 10155 20015
KHHF 201735Z AUTO 21010KT 10SM CLR 15/M06 A2988 RMK AO2 T01471061
KHHF 201715Z AUTO 21007KT 10SM CLR 14/M06 A2991 RMK AO2 T01431062
KHHF 201655Z AUTO 20010KT 10SM CLR 13/M06 A2992 RMK AO2 T01331059
KHHF 201635Z AUTO 21008KT 10SM CLR 12/M06 A2992 RMK AO2 T01221057
KHHF 201615Z AUTO 22008KT 10SM CLR 11/M05 A2994 RMK AO2 T01131055
KHHF 201555Z AUTO 24010KT 10SM CLR 10/M05 A2995 RMK AO2 T01021055
KHHF 201535Z AUTO 24012KT 10SM CLR 10/M05 A2995 RMK AO2 T00951055
KHHF 201515Z AUTO 22010KT 10SM CLR 08/M05 A2995 RMK AO2 T00821054
KHHF 201455Z AUTO 22011G17KT 10SM CLR 07/M05 A2995 RMK AO2 T00721055
KHHF 201435Z AUTO 23008G14KT 10SM CLR 06/M05 A2995 RMK AO2 T00571055
KHHF 201415Z AUTO 20010KT 10SM CLR 04/M05 A2994 RMK AO2 T00401055
KHHF 201355Z AUTO 22005KT 10SM CLR 02/M06 A2996 RMK AO2 T00201062
KHHF 201335Z AUTO 21006KT 10SM CLR 02/M06 A2995 RMK AO2 T00241063
KHHF 201315Z AUTO 21008KT 10SM CLR 03/M06 A2994 RMK AO2 T00301062
KHHF 201255Z AUTO 21010KT 10SM CLR 03/M06 A2995 RMK AO2 T00251064
KHHF 201235Z AUTO 21007KT 10SM CLR 02/M06 A2995 RMK AO2 T00241064
KHHF 201215Z AUTO 21007KT 10SM CLR 02/M06 A2995 RMK AO2 T00181065
KHHF 201155Z AUTO 26003KT 10SM CLR 02/M07 A2996 RMK AO2 T00211070 10076 20015
KHHF 201135Z AUTO 24006KT 10SM CLR 02/M07 A2997 RMK AO2 T00191069
KHHF 201115Z AUTO 22007KT 10SM CLR 02/M07 A2998 RMK AO2 T00201071
KHHF 201055Z AUTO 21008KT 10SM CLR 03/M07 A2998 RMK AO2 T00301070
KHHF 201035Z AUTO 22007KT 10SM CLR 03/M07 A2998 RMK AO2 T00311075
KHHF 201020Z AUTO 00000KT 10SM CLR 04/M08 A3000 RMK AO2 T00351077
KHHF 200955Z AUTO 21008KT 10SM CLR 05/M08 A2999 RMK AO2 T00471077
KHHF 200935Z AUTO 21008KT 10SM CLR 04/M08 A3000 RMK AO2 T00431079
KHHF 200915Z AUTO 22007KT 10SM CLR 05/M08 A3000 RMK AO2 T00521082
KHHF 200855Z AUTO 23011G15KT 10SM CLR 06/M08 A2999 RMK AO2 T00631084
KHHF 200835Z AUTO 22012KT 10SM CLR 08/M08 A3000 RMK AO2 T00761084
KHHF 200815Z AUTO 22013G19KT 10SM CLR 07/M08 A3001 RMK AO2 T00731082
KHHF 200755Z AUTO 23011KT 10SM CLR 06/M08 A3002 RMK AO2 T00571076
KHHF 200735Z AUTO 25005KT 10SM CLR 03/M07 A3003 RMK AO2 T00341070
KHHF 200715Z AUTO 27004KT 10SM CLR 04/M07 A3005 RMK AO2 T00361070
KHHF 200655Z AUTO 24005KT 10SM CLR 04/M07 A3005 RMK AO2 T00381071
KHHF 200635Z AUTO 25005KT 10SM CLR 05/M07 A3006 RMK AO2 T00511072
KHHF 200615Z AUTO 24008KT 10SM CLR 05/M07 A3006 RMK AO2 T00471074
KHHF 200555Z AUTO 22005KT 10SM CLR 05/M08 A3006 RMK AO2 T00541076 10118 20051 401821067
KHHF 200535Z AUTO 21003KT 10SM CLR 06/M08 A3007 RMK AO2 T00641078
KHHF 200515Z AUTO 00000KT 10SM CLR 07/M08 A3007 RMK AO2 T00661077
KHHF 200455Z AUTO 21006KT 10SM CLR 06/M08 A3007 RMK AO2 T00641077
KHHF 200435Z AUTO 23005KT 10SM CLR 06/M08 A3009 RMK AO2 T00621078
KHHF 200415Z AUTO 21011KT 10SM CLR 07/M08 A3008 RMK AO2 T00741076
KHHF 200355Z AUTO 22009KT 10SM CLR 08/M07 A3009 RMK AO2 T00821074
KHHF 200335Z AUTO 23004KT 10SM CLR 06/M08 A3009 RMK AO2 T00591077
KHHF 200315Z AUTO 25005KT 10SM CLR 08/M08 A3009 RMK AO2 T00831076
KHHF 200255Z AUTO 21008KT 10SM CLR 09/M08 A3009 RMK AO2 T00911078
KHHF 200235Z AUTO 20011KT 10SM CLR 10/M08 A3009 RMK AO2 T01001077
KHHF 200215Z AUTO 21011KT 10SM CLR 10/M08 A3009 RMK AO2 T01001079
KHHF 200155Z AUTO 22009KT 10SM CLR 09/M08 A3010 RMK AO2 T00921077
KHHF 200135Z AUTO 21007KT 10SM CLR 09/M08 A3010 RMK AO2 T00881080
KHHF 200115Z AUTO 21009KT 10SM CLR 10/M08 A3010 RMK AO2 T00951080
KHHF 200055Z AUTO 20006KT 10SM CLR 09/M08 A3010 RMK AO2 T00921080
KHHF 200035Z AUTO 20008KT 10SM CLR 11/M08 A3010 RMK AO2 T01091080
KHHF 200015Z AUTO 19008KT 10SM CLR 11/M08 A3010 RMK AO2 T01071081
KHHF 192355Z AUTO 19009KT 10SM CLR 12/M08 A3010 RMK AO2 T01171083 10182 20117
KHHF 192335Z AUTO 19008KT 10SM CLR 13/M09 A3010 RMK AO2 T01281086
KHHF 192315Z AUTO 19009KT 10SM CLR 14/M09 A3010 RMK AO2 T01431091
KHHF 192255Z AUTO 20009KT 10SM CLR 16/M10 A3011 RMK AO2 T01571100
KHHF 192235Z AUTO 20013G18KT 10SM CLR 17/M10 A3011 RMK AO2 T01681104
KHHF 192215Z AUTO 21015G19KT 10SM CLR 17/M10 A3012 RMK AO2 T01731105
KHHF 192155Z AUTO 21013G20KT 10SM CLR 18/M10 A3012 RMK AO2 T01751105
KHHF 192135Z AUTO 21014G20KT 10SM CLR 18/M10 A3012 RMK AO2 T01761102
KHHF 192115Z AUTO 20016G21KT 10SM CLR 18/M10 A3012 RMK AO2 T01771105
KHHF 192055Z AUTO 23016G24KT 10SM CLR 18/M11 A3014 RMK AO2 T01801107
KHHF 192035Z AUTO 22019G23KT 10SM CLR 18/M10 A3015 RMK AO2 T01811105
KHHF 192015Z AUTO 21013G20KT 10SM CLR 18/M11 A3015 RMK AO2 T01781108
KHHF 191955Z AUTO 23014G22KT 10SM CLR 18/M10 A3016 RMK AO2 T01801105
KHHF 191935Z AUTO 23012G22KT 10SM CLR 18/M11 A3017 RMK AO2 T01751107
KHHF 191915Z AUTO 23015G19KT 10SM CLR 18/M11 A3019 RMK AO2 T01751107
KHHF 191855Z AUTO 22013G23KT 10SM CLR 17/M11 A3020 RMK AO2 T01701109
KHHF 191835Z AUTO 23012G28KT 10SM CLR 17/M11 A3021 RMK AO2 T01701109
KHHF 191815Z AUTO 22015G20KT 10SM CLR 17/M11 A3023 RMK AO2 T01651110
KHHF 191755Z AUTO 23013G18KT 10SM CLR 16/M11 A3025 RMK AO2 T01621107 10162 21066
KHHF 191735Z AUTO 22013G16KT 10SM CLR 16/M10 A3027 RMK AO2 T01551104
KHHF 191715Z AUTO 24012G17KT 10SM CLR 15/M10 A3028 RMK AO2 T01471100
KHHF 191655Z AUTO 23014KT 10SM CLR 14/M09 A3030 RMK AO2 T01401092
KHHF 191635Z AUTO 23009G15KT 10SM CLR 11/M06 A3030 RMK AO2 T01071059
KHHF 191615Z AUTO 00000KT 10SM CLR 07/M04 A3031 RMK AO2 T00671037
KHHF 191555Z AUTO 00000KT 10SM CLR 04/M04 A3032 RMK AO2 T00421038
KHHF 191535Z AUTO 00000KT 10SM CLR 02/M04 A3033 RMK AO2 T00191036
KHHF 191520Z AUTO 00000KT 10SM CLR 01/M04 A3033 RMK AO2 T00051041
KHHF 191455Z AUTO 00000KT 10SM CLR M01/M05 A3033 RMK AO2 T10091048
KHHF 191435Z AUTO 00000KT 10SM CLR M02/M06 A3033 RMK AO2 T10251061
KHHF 191415Z AUTO 00000KT 10SM CLR M04/M07 A3033 RMK AO2 T10371067
KHHF 191355Z AUTO 00000KT 10SM CLR M06/M08 A3033 RMK AO2 T10571080
KHHF 191335Z AUTO 23003KT 10SM CLR M05/M08 A3033 RMK AO2 T10551076
KHHF 191315Z AUTO 00000KT 10SM CLR M06/M08 A3033 RMK AO2 T10611081
KHHF 191300Z AUTO 00000KT 10SM CLR M06/M08 A3032 RMK AO2 T10631085
KHHF 191235Z AUTO 24003KT 10SM CLR M05/M08 A3033 RMK AO2 T10521076
KHHF 191215Z AUTO 22004KT 10SM CLR M06/M08 A3033 RMK AO2 T10581076
KHHF 191155Z AUTO 22003KT 10SM CLR M06/M08 A3033 RMK AO2 T10621082 11021 21067
KHHF 191135Z AUTO 00000KT 10SM CLR M05/M07 A3033 RMK AO2 T10461073
KHHF 191115Z AUTO 20003KT 10SM CLR M07/M08 A3033 RMK AO2 T10671085
KHHF 191055Z AUTO 22003KT 10SM CLR M06/M08 A3033 RMK AO2 T10651085
KHHF 191035Z AUTO 00000KT 10SM CLR M05/M08 A3033 RMK AO2 T10501076
KHHF 191015Z AUTO 23003KT 10SM CLR M05/M07 A3033 RMK AO2 T10471075
KHHF 190955Z AUTO 00000KT 10SM CLR M05/M07 A3033 RMK AO2 T10501073
KHHF 190935Z AUTO 00000KT 10SM CLR M05/M07 A3033 RMK AO2 T10461073
KHHF 190915Z AUTO 00000KT 10SM CLR M05/M07 A3033 RMK AO2 T10491075